KMDW/MDW METAR and TAF weather

Enter ICAO airport designator
Station Type Date Time Source
KMDW METAR 2021/07/29 17:53 UTC NOAA

KMDW 291753Z 09011KT 10SM BKN033 BKN044 BKN200 27/20 A2991 RMK AO2 SLP115 T02720200 10317 20239 51006


Station Type Date Time Source
KMDW Decoded METAR 2021/07/29 17:53 UTC NOAA

CHICAGO MIDWAY AIRPORT, IL, United States (KMDW) 41-47N 087-45W 188M
Jul 29, 2021 - 01:53 PM EDT / 2021.07.29 1753 UTC
Wind: from the E (090 degrees) at 13 MPH (11 KT):0
Visibility: 10 mile(s):0
Sky conditions: mostly cloudy
Temperature: 81.0 F (27.2 C)
Dew Point: 68.0 F (20.0 C)
Relative Humidity: 64%
Pressure (altimeter): 29.91 in. Hg (1012 hPa)
Pressure tendency: 0.02 inches (0.6 hPa) higher than three hours ago
ob: KMDW 291753Z 09011KT 10SM BKN033 BKN044 BKN200 27/20 A2991 RMK AO2 SLP115 T02720200 10317 20239 51006
cycle: 18

Station Type Date Time Source
KMDW TAF 2021/07/29 12:39 UTC NOAA

TAF KMDW 291135Z 2912/3018 24014G22KT P6SM SCT020 BKN150
FM291400 28012G18KT P6SM VCTS SCT020 BKN040CB
FM291600 32011G17KT P6SM BKN020
FM291800 04012G18KT P6SM SCT025 BKN035
FM300000 03011KT P6SM SCT035 SCT250

Example: see airport list